createdAt,value
2022-09-15T00:00:32.932Z,49.01
2022-09-15T00:03:00.082Z,48.80
2022-09-15T00:05:27.275Z,48.74
2022-09-15T00:07:54.351Z,48.72
2022-09-15T00:10:21.508Z,48.81
2022-09-15T00:12:48.629Z,48.77
2022-09-15T00:15:17.137Z,49.12
2022-09-15T00:17:49.252Z,48.86
2022-09-15T00:20:17.015Z,49.27
2022-09-15T00:22:44.112Z,48.83
2022-09-15T00:25:12.016Z,48.97
2022-09-15T00:27:39.130Z,48.80
2022-09-15T00:30:08.276Z,48.79
2022-09-15T00:32:36.730Z,49.05
2022-09-15T00:35:04.315Z,48.75
2022-09-15T00:37:31.428Z,48.92
2022-09-15T00:39:58.519Z,48.79
2022-09-15T00:42:25.935Z,48.85
2022-09-15T00:44:56.611Z,48.89
2022-09-15T00:47:28.708Z,49.06
2022-09-15T00:50:02.145Z,48.93
2022-09-15T00:52:34.520Z,48.93
2022-09-15T00:55:05.810Z,49.06
2022-09-15T00:57:37.014Z,49.13
2022-09-15T01:03:12.482Z,49.22
2022-09-15T01:05:48.364Z,49.22
2022-09-15T01:08:20.031Z,48.94
2022-09-15T01:10:47.129Z,48.71
2022-09-15T01:13:15.254Z,48.95
2022-09-15T01:15:57.568Z,48.95
2022-09-15T01:18:32.330Z,48.80
2022-09-15T01:21:34.900Z,49.20
2022-09-15T01:24:29.309Z,48.89
2022-09-15T01:27:30.432Z,49.09
2022-09-15T01:30:03.455Z,48.72
2022-09-15T01:32:37.560Z,49.11
2022-09-15T01:35:19.275Z,49.09
2022-09-15T01:37:52.958Z,48.83
2022-09-15T01:40:23.759Z,48.83
2022-09-15T01:42:53.007Z,48.83
2022-09-15T01:45:25.287Z,49.09
2022-09-15T01:47:54.567Z,49.05
2022-09-15T01:50:24.197Z,48.70
2022-09-15T01:52:55.948Z,49.11
2022-09-15T01:55:30.584Z,48.83
2022-09-15T01:57:58.188Z,49.13
2022-09-15T02:00:26.624Z,48.88
2022-09-15T02:03:01.037Z,48.62
2022-09-15T02:05:34.536Z,48.73
2022-09-15T02:08:04.796Z,48.81
2022-09-15T02:10:37.444Z,49.03
2022-09-15T02:13:11.214Z,49.13
2022-09-15T02:15:43.201Z,48.83
2022-09-15T02:18:17.211Z,48.82
2022-09-15T02:20:47.990Z,48.66
2022-09-15T02:23:19.870Z,48.75
2022-09-15T02:25:49.977Z,49.14
2022-09-15T02:28:20.953Z,48.81
2022-09-15T02:30:53.408Z,48.72
2022-09-15T02:33:25.107Z,48.95
2022-09-15T02:35:52.850Z,48.88
2022-09-15T02:38:20.149Z,49.00
2022-09-15T02:40:48.088Z,48.99
2022-09-15T02:43:17.460Z,48.51
2022-09-15T02:45:44.686Z,48.58
2022-09-15T02:48:13.148Z,49.03
2022-09-15T02:50:40.368Z,48.55
2022-09-15T02:53:07.907Z,48.75
2022-09-15T02:55:35.127Z,48.50
2022-09-15T02:58:02.202Z,48.74
2022-09-15T03:00:29.542Z,48.72
2022-09-15T03:02:56.704Z,48.66
2022-09-15T03:05:27.863Z,48.99
2022-09-15T03:07:55.723Z,48.51
2022-09-15T03:10:24.445Z,48.72
2022-09-15T03:12:53.575Z,48.90
2022-09-15T03:15:23.039Z,48.73
2022-09-15T03:17:50.167Z,48.57
2022-09-15T03:20:19.065Z,49.15
2022-09-15T03:22:47.652Z,49.10
2022-09-15T03:25:14.842Z,48.83
2022-09-15T03:27:42.048Z,48.77
2022-09-15T03:30:10.645Z,48.89
2022-09-15T03:32:37.740Z,48.78
2022-09-15T03:35:06.166Z,48.52
2022-09-15T03:37:33.673Z,48.76
2022-09-15T03:40:03.132Z,48.98
2022-09-15T03:42:30.305Z,48.63
2022-09-15T03:44:57.405Z,48.45
2022-09-15T03:47:24.535Z,48.47
2022-09-15T03:49:51.638Z,48.93
2022-09-15T03:52:18.795Z,48.48
2022-09-15T03:54:47.823Z,48.67
2022-09-15T03:57:16.285Z,48.72
2022-09-15T03:59:43.443Z,48.77
2022-09-15T04:02:10.616Z,48.85
2022-09-15T04:04:37.725Z,48.85
2022-09-15T04:07:04.980Z,48.97
2022-09-15T04:09:32.077Z,48.51
2022-09-15T04:11:59.171Z,48.66
2022-09-15T04:14:27.647Z,48.60
2022-09-15T04:16:54.743Z,48.75
2022-09-15T04:19:21.847Z,48.95
2022-09-15T04:21:48.938Z,48.45
2022-09-15T04:24:16.568Z,48.97
2022-09-15T04:26:43.982Z,48.72
2022-09-15T04:29:13.332Z,48.68
2022-09-15T04:31:43.892Z,49.03
2022-09-15T04:34:11.047Z,48.50
2022-09-15T04:36:38.180Z,48.79
2022-09-15T04:39:05.486Z,48.83
2022-09-15T04:41:33.268Z,48.45
2022-09-15T04:44:00.445Z,48.85
2022-09-15T04:46:27.745Z,48.48
2022-09-15T04:48:56.807Z,48.91
2022-09-15T04:51:24.179Z,48.53
2022-09-15T04:53:51.861Z,48.80
2022-09-15T04:56:21.934Z,48.79
2022-09-15T04:58:50.997Z,48.54
2022-09-15T05:01:20.868Z,48.53
2022-09-15T05:03:48.361Z,48.66
2022-09-15T05:06:18.856Z,48.61
2022-09-15T05:08:47.473Z,48.52
2022-09-15T05:11:14.869Z,48.72
2022-09-15T05:13:42.672Z,48.73
2022-09-15T05:16:11.801Z,48.82
2022-09-15T05:18:40.281Z,48.79
2022-09-15T05:21:09.862Z,48.45
2022-09-15T05:23:38.354Z,48.76
2022-09-15T05:26:07.456Z,48.43
2022-09-15T05:28:36.338Z,48.45
2022-09-15T05:31:08.817Z,49.50
2022-09-15T05:33:36.086Z,48.69
2022-09-15T05:36:03.842Z,49.81
2022-09-15T05:38:32.160Z,50.14
2022-09-15T05:41:03.797Z,51.31
2022-09-15T05:43:31.318Z,51.61
2022-09-15T05:45:58.620Z,52.18
2022-09-15T05:48:25.744Z,52.83
2022-09-15T05:50:54.151Z,53.31
2022-09-15T05:53:21.860Z,53.16
2022-09-15T05:55:49.233Z,53.75
2022-09-15T05:58:17.668Z,54.16
2022-09-15T06:00:44.779Z,53.63
2022-09-15T06:03:14.637Z,53.41
2022-09-15T06:05:42.011Z,54.74
2022-09-15T06:08:09.324Z,56.16
2022-09-15T06:10:36.730Z,56.90
2022-09-15T06:13:03.833Z,57.95
2022-09-15T06:15:32.522Z,58.16
2022-09-15T06:17:59.640Z,58.28
2022-09-15T06:20:26.860Z,58.62
2022-09-15T06:22:53.993Z,60.29
2022-09-15T06:25:21.077Z,59.75
2022-09-15T06:27:49.092Z,58.82
2022-09-15T06:30:16.469Z,59.66
2022-09-15T06:32:48.055Z,59.65
2022-09-15T06:35:15.768Z,62.29
2022-09-15T06:37:42.913Z,62.89
2022-09-15T06:40:11.034Z,61.83
2022-09-15T06:42:38.212Z,63.40
2022-09-15T06:45:05.878Z,62.80
2022-09-15T06:47:32.982Z,62.71
2022-09-15T06:50:01.627Z,60.38
2022-09-15T06:52:28.755Z,58.40
2022-09-15T06:54:55.829Z,56.64
2022-09-15T06:57:22.940Z,55.90
2022-09-15T06:59:50.033Z,55.28
2022-09-15T07:02:17.223Z,54.61
2022-09-15T07:04:44.425Z,54.04
2022-09-15T07:07:12.871Z,53.67
2022-09-15T07:09:41.436Z,53.56
2022-09-15T07:12:09.043Z,53.38
2022-09-15T07:14:36.147Z,53.14
2022-09-15T07:17:03.275Z,52.94
2022-09-15T07:19:30.475Z,52.49
2022-09-15T07:21:57.741Z,52.67
2022-09-15T07:24:26.168Z,52.52
2022-09-15T07:26:53.274Z,52.29
2022-09-15T07:29:20.379Z,54.06
2022-09-15T07:31:47.559Z,53.82
2022-09-15T07:34:14.659Z,57.30
2022-09-15T07:36:41.768Z,62.46
2022-09-15T07:39:08.854Z,61.52
2022-09-15T07:41:38.466Z,57.68
2022-09-15T07:44:06.968Z,55.81
2022-09-15T07:46:34.057Z,54.59
2022-09-15T07:49:01.739Z,54.40
2022-09-15T07:51:28.843Z,54.00
2022-09-15T07:53:56.584Z,53.90
2022-09-15T07:56:23.657Z,54.96
2022-09-15T07:58:52.339Z,54.90
2022-09-15T08:01:20.474Z,54.21
2022-09-15T08:03:49.560Z,54.04
2022-09-15T08:06:18.630Z,53.35
2022-09-15T08:08:46.297Z,53.17
2022-09-15T08:11:18.636Z,52.71
2022-09-15T08:13:46.631Z,52.83
2022-09-15T08:16:16.892Z,52.56
2022-09-15T08:18:44.589Z,52.93
2022-09-15T08:21:14.058Z,53.35
2022-09-15T08:23:41.378Z,53.01
2022-09-15T08:26:14.180Z,53.20
2022-09-15T08:28:42.395Z,52.83
2022-09-15T08:31:12.410Z,52.51
2022-09-15T08:33:45.490Z,52.62
2022-09-15T08:36:13.386Z,52.51
2022-09-15T08:38:41.044Z,52.41
2022-09-15T08:41:18.841Z,52.37
2022-09-15T08:43:49.933Z,52.31
2022-09-15T08:46:22.765Z,51.97
2022-09-15T08:49:02.632Z,52.09
2022-09-15T08:51:36.502Z,51.89
2022-09-15T08:54:10.847Z,51.93
2022-09-15T08:56:40.014Z,52.18
2022-09-15T08:59:12.100Z,52.07
2022-09-15T09:01:51.815Z,51.82
2022-09-15T09:04:36.152Z,51.75
2022-09-15T09:07:14.506Z,51.95
2022-09-15T09:09:48.505Z,51.70
2022-09-15T09:12:20.623Z,51.63
2022-09-15T09:15:02.719Z,51.95
2022-09-15T09:17:48.094Z,51.89
2022-09-15T09:20:32.352Z,51.68
2022-09-15T09:23:01.081Z,51.97
2022-09-15T09:25:28.577Z,51.73
2022-09-15T09:27:56.940Z,51.64
2022-09-15T09:30:27.610Z,51.87
2022-09-15T09:33:17.417Z,52.01
2022-09-15T09:35:49.388Z,51.88
2022-09-15T09:38:20.885Z,51.80
2022-09-15T09:40:49.437Z,51.63
2022-09-15T09:43:17.009Z,51.31
2022-09-15T09:45:44.179Z,51.46
2022-09-15T09:48:17.349Z,51.19
2022-09-15T09:50:46.599Z,51.13
2022-09-15T09:53:19.682Z,51.24
2022-09-15T09:55:46.813Z,51.35
2022-09-15T09:58:18.528Z,51.33
2022-09-15T10:00:46.323Z,51.47
2022-09-15T10:03:17.058Z,51.23
2022-09-15T10:05:59.804Z,51.15
2022-09-15T10:08:27.376Z,51.23
2022-09-15T10:10:59.213Z,51.52
2022-09-15T10:13:26.466Z,51.50
2022-09-15T10:15:56.960Z,51.58
2022-09-15T10:18:30.049Z,51.36
2022-09-15T10:20:59.874Z,51.46
2022-09-15T10:23:28.727Z,51.34
2022-09-15T10:26:00.203Z,51.54
2022-09-15T10:28:28.283Z,51.24
2022-09-15T10:31:01.769Z,51.29
2022-09-15T10:33:31.017Z,50.84
2022-09-15T10:36:04.171Z,50.84
2022-09-15T10:38:38.895Z,50.91
2022-09-15T10:41:17.606Z,51.06
2022-09-15T10:44:02.493Z,50.85
2022-09-15T10:46:39.472Z,50.84
2022-09-15T10:49:23.422Z,51.02
2022-09-15T10:52:05.343Z,50.79
2022-09-15T10:55:00.152Z,50.66
2022-09-15T10:57:44.508Z,51.09
2022-09-15T11:00:16.739Z,50.96
2022-09-15T11:03:24.693Z,50.68
2022-09-15T11:06:04.172Z,50.94
2022-09-15T11:08:45.560Z,50.98
2022-09-15T11:11:18.493Z,51.02
2022-09-15T11:14:06.275Z,50.59
2022-09-15T11:16:48.013Z,50.80
2022-09-15T11:19:30.858Z,50.67
2022-09-15T11:22:03.096Z,50.95
2022-09-15T11:24:41.013Z,50.86
2022-09-15T11:27:16.624Z,50.72
2022-09-15T11:30:01.405Z,50.72
2022-09-15T11:32:34.704Z,50.60
2022-09-15T11:35:22.301Z,50.56
2022-09-15T11:37:52.725Z,50.53
2022-09-15T11:40:27.509Z,50.45
2022-09-15T11:42:59.523Z,50.30
2022-09-15T11:45:34.390Z,50.52
2022-09-15T11:48:06.297Z,50.24
2022-09-15T11:50:37.656Z,50.41
2022-09-15T11:53:13.781Z,50.56
2022-09-15T11:55:49.084Z,50.09
2022-09-15T11:58:22.730Z,50.41
2022-09-15T12:00:54.870Z,50.61
2022-09-15T12:03:27.483Z,50.32
2022-09-15T12:05:58.315Z,50.51
2022-09-15T12:08:31.953Z,50.42
2022-09-15T12:11:05.821Z,50.37
2022-09-15T12:13:33.380Z,50.49
2022-09-15T12:16:01.944Z,50.31
2022-09-15T12:18:41.051Z,49.96
2022-09-15T12:21:17.136Z,49.96
2022-09-15T12:23:51.037Z,50.16
2022-09-15T12:26:20.775Z,50.31
2022-09-15T12:28:56.716Z,50.20
2022-09-15T12:31:35.937Z,49.92
2022-09-15T12:34:05.965Z,50.29
2022-09-15T12:36:42.576Z,50.26
2022-09-15T12:39:26.179Z,50.22
2022-09-15T12:41:57.436Z,50.26
2022-09-15T12:44:34.482Z,49.75
2022-09-15T12:47:04.507Z,50.10
2022-09-15T12:49:35.446Z,50.15
2022-09-15T12:52:06.647Z,49.92
2022-09-15T12:54:35.888Z,50.17
2022-09-15T12:57:05.544Z,50.16
2022-09-15T12:59:32.663Z,50.14
2022-09-15T13:01:59.819Z,50.34
2022-09-15T13:04:51.187Z,50.25
2022-09-15T13:07:33.064Z,50.14
2022-09-15T13:10:24.660Z,49.90
2022-09-15T13:13:04.141Z,50.22
2022-09-15T13:15:34.749Z,49.79
2022-09-15T13:18:05.567Z,49.65
2022-09-15T13:20:38.090Z,49.64
2022-09-15T13:23:09.291Z,49.83
2022-09-15T13:25:40.185Z,49.85
2022-09-15T13:30:53.027Z,49.93
2022-09-15T13:39:40.151Z,49.90
2022-09-15T13:42:32.161Z,49.63
2022-09-15T13:45:30.002Z,50.04
2022-09-15T13:48:19.126Z,49.87
2022-09-15T13:50:55.401Z,49.99
2022-09-15T13:53:38.792Z,49.76
2022-09-15T13:56:08.344Z,49.84
2022-09-15T14:01:25.234Z,49.89
2022-09-15T14:03:54.807Z,49.80
2022-09-15T14:06:25.706Z,49.65
2022-09-15T14:08:55.983Z,49.79
2022-09-15T14:11:27.962Z,49.97
2022-09-15T14:13:56.666Z,49.73
2022-09-15T14:16:32.625Z,49.95
2022-09-15T14:19:01.281Z,49.88
2022-09-15T14:21:30.638Z,49.67
2022-09-15T14:23:59.353Z,49.41
2022-09-15T14:26:29.356Z,49.67
2022-09-15T14:28:58.500Z,49.40
2022-09-15T14:31:32.649Z,49.58
2022-09-15T14:34:00.987Z,49.76
2022-09-15T14:36:30.185Z,49.85
2022-09-15T14:39:05.839Z,49.70
2022-09-15T14:41:32.966Z,49.38
2022-09-15T14:44:00.049Z,49.42
2022-09-15T14:46:37.250Z,49.42
2022-09-15T14:49:10.611Z,49.58
2022-09-15T14:51:38.933Z,49.46
2022-09-15T14:54:09.298Z,49.69
2022-09-15T14:56:40.681Z,49.78
2022-09-15T14:59:11.776Z,49.41
2022-09-15T15:01:42.624Z,49.45
2022-09-15T15:04:20.402Z,49.58
2022-09-15T15:06:55.129Z,49.27
2022-09-15T15:09:28.952Z,49.29
2022-09-15T15:12:00.650Z,49.46
2022-09-15T15:14:28.826Z,49.59
2022-09-15T15:17:00.813Z,49.20
2022-09-15T15:19:35.077Z,49.40
2022-09-15T15:22:16.995Z,49.10
2022-09-15T15:24:47.301Z,49.44
2022-09-15T15:27:43.022Z,49.39
2022-09-15T15:30:33.118Z,49.51
2022-09-15T15:33:04.030Z,49.19
2022-09-15T15:35:32.418Z,49.38
2022-09-15T15:38:02.304Z,48.84
2022-09-15T15:40:29.967Z,49.06
2022-09-15T15:43:02.812Z,49.08
2022-09-15T15:45:30.931Z,49.32
2022-09-15T15:47:58.321Z,49.12
2022-09-15T15:50:27.439Z,49.21
2022-09-15T15:52:54.813Z,49.09
2022-09-15T15:55:23.830Z,48.88
2022-09-15T15:57:52.681Z,49.22
2022-09-15T16:00:22.924Z,48.97
2022-09-15T16:02:50.986Z,49.16
2022-09-15T16:05:18.787Z,48.78
2022-09-15T16:07:49.896Z,48.84
2022-09-15T16:10:19.832Z,49.12
2022-09-15T16:12:47.909Z,48.78
2022-09-15T16:15:17.589Z,48.92
2022-09-15T16:17:46.885Z,48.95
2022-09-15T16:20:15.024Z,48.89
2022-09-15T16:22:42.915Z,49.05
2022-09-15T16:25:15.723Z,48.76
2022-09-15T16:27:42.829Z,48.74
2022-09-15T16:30:10.596Z,48.65
2022-09-15T16:32:38.705Z,48.54
2022-09-15T16:35:23.704Z,48.60
2022-09-15T16:37:50.819Z,48.88
2022-09-15T16:40:19.396Z,48.70
2022-09-15T16:42:47.507Z,48.62
2022-09-15T16:45:23.040Z,48.85
2022-09-15T16:47:50.148Z,48.68
2022-09-15T16:50:17.233Z,48.85
2022-09-15T16:52:44.432Z,48.75
2022-09-15T16:55:21.172Z,48.89
2022-09-15T16:57:48.268Z,48.67
2022-09-15T17:00:16.017Z,48.42
2022-09-15T17:02:43.138Z,48.81
2022-09-15T17:05:17.190Z,48.62
2022-09-15T17:07:44.322Z,48.71
2022-09-15T17:10:11.505Z,48.43
2022-09-15T17:12:40.030Z,48.51
2022-09-15T17:15:23.172Z,48.63
2022-09-15T17:17:50.640Z,48.77
2022-09-15T17:20:18.423Z,48.63
2022-09-15T17:22:46.250Z,48.31
2022-09-15T17:25:19.973Z,48.16
2022-09-15T17:27:48.477Z,48.26
2022-09-15T17:30:16.741Z,48.50
2022-09-15T17:32:44.812Z,48.47
2022-09-15T17:35:16.845Z,48.23
2022-09-15T17:37:44.500Z,48.58
2022-09-15T17:40:13.003Z,48.55
2022-09-15T17:42:40.508Z,48.36
2022-09-15T17:45:23.625Z,48.08
2022-09-15T17:47:51.197Z,48.36
2022-09-15T17:50:20.308Z,48.62
2022-09-15T17:52:48.450Z,48.34
2022-09-15T17:55:21.084Z,48.46
2022-09-15T17:57:49.064Z,48.45
2022-09-15T18:00:18.757Z,48.64
2022-09-15T18:02:51.283Z,48.40
2022-09-15T18:05:21.420Z,48.82
2022-09-15T18:07:48.767Z,48.43
2022-09-15T18:10:16.805Z,48.38
2022-09-15T18:12:46.899Z,48.48
2022-09-15T18:15:18.549Z,48.28
2022-09-15T18:17:45.680Z,48.44
2022-09-15T18:20:16.491Z,48.44
2022-09-15T18:22:44.748Z,48.13
2022-09-15T18:25:20.923Z,48.21
2022-09-15T18:27:47.997Z,47.81
2022-09-15T18:30:16.732Z,48.05
2022-09-15T18:32:44.311Z,48.25
2022-09-15T18:35:17.704Z,48.16
2022-09-15T18:37:47.732Z,47.90
2022-09-15T18:40:17.502Z,47.82
2022-09-15T18:42:45.367Z,48.17
2022-09-15T18:45:14.781Z,48.20
2022-09-15T18:47:42.092Z,47.89
2022-09-15T18:50:11.855Z,47.97
2022-09-15T18:52:41.687Z,47.85
2022-09-15T18:55:13.690Z,48.06
2022-09-15T18:57:41.525Z,48.28
2022-09-15T19:00:10.963Z,48.03
2022-09-15T19:02:38.353Z,48.36
2022-09-15T19:05:06.274Z,48.44
2022-09-15T19:07:33.691Z,48.54
2022-09-15T19:10:00.780Z,48.50
2022-09-15T19:12:29.187Z,48.64
2022-09-15T19:14:56.276Z,48.19
2022-09-15T19:17:23.379Z,48.56
2022-09-15T19:19:50.459Z,48.08
2022-09-15T19:22:17.612Z,48.48
2022-09-15T19:24:44.680Z,48.27
2022-09-15T19:27:11.768Z,48.28
2022-09-15T19:29:40.236Z,48.58
2022-09-15T19:32:09.933Z,48.08
2022-09-15T19:34:38.017Z,48.04
2022-09-15T19:37:10.685Z,48.13
2022-09-15T19:39:39.951Z,48.26
2022-09-15T19:42:07.842Z,48.20
2022-09-15T19:44:35.036Z,48.51
2022-09-15T19:47:03.891Z,48.27
2022-09-15T19:49:31.022Z,48.58
2022-09-15T19:51:58.111Z,48.44
2022-09-15T19:54:28.373Z,48.35
2022-09-15T19:56:55.827Z,48.79
2022-09-15T19:59:27.450Z,48.77
2022-09-15T20:01:57.647Z,48.66
2022-09-15T20:04:26.136Z,48.85
2022-09-15T20:06:53.612Z,48.61
2022-09-15T20:09:20.729Z,48.32
2022-09-15T20:11:47.937Z,48.39
2022-09-15T20:14:15.416Z,48.06
2022-09-15T20:16:42.715Z,48.01
2022-09-15T20:19:09.935Z,47.85
2022-09-15T20:21:55.835Z,48.20
2022-09-15T20:24:23.550Z,48.27
2022-09-15T20:26:51.084Z,48.16
2022-09-15T20:29:18.666Z,48.06
2022-09-15T20:31:45.984Z,48.30
2022-09-15T20:34:13.214Z,48.11
2022-09-15T20:36:41.633Z,48.44
2022-09-15T20:39:12.002Z,48.18
2022-09-15T20:41:39.887Z,48.02
2022-09-15T20:44:07.200Z,48.50
2022-09-15T20:46:34.711Z,48.27
2022-09-15T20:49:02.057Z,48.54
2022-09-15T20:51:30.260Z,48.45
2022-09-15T20:54:00.167Z,48.44
2022-09-15T20:56:29.193Z,48.17
2022-09-15T20:58:57.571Z,48.08
2022-09-15T21:01:26.433Z,48.00
2022-09-15T21:03:54.202Z,48.03
2022-09-15T21:06:23.320Z,48.10
2022-09-15T21:08:50.682Z,47.98
2022-09-15T21:11:20.645Z,47.88
2022-09-15T21:13:48.677Z,47.64
2022-09-15T21:16:17.661Z,48.03
2022-09-15T21:18:45.261Z,47.95
2022-09-15T21:21:14.349Z,47.94
2022-09-15T21:23:43.219Z,47.86
2022-09-15T21:26:12.085Z,47.98
2022-09-15T21:28:41.210Z,47.93
2022-09-15T21:31:10.392Z,47.68
2022-09-15T21:33:38.520Z,47.99
2022-09-15T21:36:07.733Z,47.63
2022-09-15T21:38:34.821Z,48.07
2022-09-15T21:41:02.325Z,47.84
2022-09-15T21:43:30.499Z,47.54
2022-09-15T21:45:59.028Z,47.33
2022-09-15T21:48:26.155Z,47.98
2022-09-15T21:50:54.054Z,47.51
2022-09-15T21:53:21.185Z,47.79
2022-09-15T21:55:48.733Z,47.41
2022-09-15T21:58:16.281Z,47.55
2022-09-15T22:00:43.607Z,47.59
2022-09-15T22:03:12.281Z,47.66
2022-09-15T22:05:40.144Z,47.37
2022-09-15T22:08:08.814Z,47.63
2022-09-15T22:10:36.422Z,47.48
2022-09-15T22:13:04.279Z,47.85
2022-09-15T22:15:31.490Z,47.43
2022-09-15T22:17:58.720Z,47.51
2022-09-15T22:20:27.935Z,47.68
2022-09-15T22:22:55.670Z,47.78
2022-09-15T22:25:22.776Z,47.77
2022-09-15T22:27:49.844Z,47.74
2022-09-15T22:30:17.142Z,47.73
2022-09-15T22:32:44.293Z,47.84
2022-09-15T22:35:11.394Z,47.63
2022-09-15T22:37:39.831Z,47.43
2022-09-15T22:40:07.849Z,47.48
2022-09-15T22:42:34.949Z,47.71
2022-09-15T22:45:02.068Z,47.57
2022-09-15T22:47:29.218Z,47.78
2022-09-15T22:49:56.307Z,47.57
2022-09-15T22:52:23.400Z,47.29
2022-09-15T22:54:51.830Z,47.40
2022-09-15T22:57:18.929Z,47.18
2022-09-15T22:59:46.019Z,47.60
2022-09-15T23:02:13.190Z,47.25
2022-09-15T23:04:40.296Z,47.66
2022-09-15T23:07:07.396Z,47.58
2022-09-15T23:09:34.490Z,47.36
2022-09-15T23:12:03.091Z,47.41
2022-09-15T23:14:30.158Z,47.28
2022-09-15T23:16:57.247Z,47.62
2022-09-15T23:19:24.320Z,47.56
2022-09-15T23:21:51.416Z,47.39
2022-09-15T23:24:18.546Z,47.46
2022-09-15T23:26:45.659Z,47.60
2022-09-15T23:29:14.216Z,47.35
2022-09-15T23:31:41.354Z,47.51
2022-09-15T23:34:08.581Z,47.32
2022-09-15T23:36:35.691Z,47.42
2022-09-15T23:39:03.785Z,47.29
2022-09-15T23:41:30.878Z,47.13
2022-09-15T23:43:57.966Z,47.05
2022-09-15T23:46:26.496Z,47.04
2022-09-15T23:48:53.634Z,47.39
2022-09-15T23:51:20.749Z,47.30
2022-09-15T23:53:47.948Z,47.40
2022-09-15T23:56:15.257Z,47.46
2022-09-15T23:58:42.392Z,47.20
